sensor_id;sensor_type;location;lat;lon;timestamp;P1;durP1;ratioP1;P2;durP2;ratioP2
64282;SDS011;50497;50.720;-2.084;2022-10-16T00:02:59;7.40;;;1.20;;
64282;SDS011;50497;50.720;-2.084;2022-10-16T00:05:25;9.90;;;1.55;;
64282;SDS011;50497;50.720;-2.084;2022-10-16T00:07:50;11.90;;;1.80;;
64282;SDS011;50497;50.720;-2.084;2022-10-16T00:10:16;6.85;;;1.42;;
64282;SDS011;50497;50.720;-2.084;2022-10-16T00:12:41;8.50;;;1.40;;
64282;SDS011;50497;50.720;-2.084;2022-10-16T00:15:06;8.80;;;1.40;;
64282;SDS011;50497;50.720;-2.084;2022-10-16T00:17:32;9.68;;;1.55;;
64282;SDS011;50497;50.720;-2.084;2022-10-16T00:19:58;8.63;;;1.42;;
64282;SDS011;50497;50.720;-2.084;2022-10-16T00:22:23;9.90;;;1.65;;
64282;SDS011;50497;50.720;-2.084;2022-10-16T00:24:49;10.77;;;1.60;;
64282;SDS011;50497;50.720;-2.084;2022-10-16T00:27:15;14.13;;;2.25;;
64282;SDS011;50497;50.720;-2.084;2022-10-16T00:29:41;9.15;;;1.80;;
64282;SDS011;50497;50.720;-2.084;2022-10-16T00:32:07;11.45;;;1.85;;
64282;SDS011;50497;50.720;-2.084;2022-10-16T00:34:32;11.25;;;1.83;;
64282;SDS011;50497;50.720;-2.084;2022-10-16T00:36:58;12.60;;;1.90;;
64282;SDS011;50497;50.720;-2.084;2022-10-16T00:39:23;16.48;;;2.50;;
64282;SDS011;50497;50.720;-2.084;2022-10-16T00:41:49;13.27;;;1.92;;
64282;SDS011;50497;50.720;-2.084;2022-10-16T00:47:15;19.67;;;1.90;;
64282;SDS011;50497;50.720;-2.084;2022-10-16T00:49:45;16.67;;;1.80;;
64282;SDS011;50497;50.720;-2.084;2022-10-16T00:52:12;10.93;;;1.85;;
64282;SDS011;50497;50.720;-2.084;2022-10-16T00:54:39;11.25;;;1.60;;
64282;SDS011;50497;50.720;-2.084;2022-10-16T00:57:05;13.10;;;2.00;;
64282;SDS011;50497;50.720;-2.084;2022-10-16T00:59:33;14.07;;;1.90;;
64282;SDS011;50497;50.720;-2.084;2022-10-16T01:02:03;13.52;;;2.13;;
64282;SDS011;50497;50.720;-2.084;2022-10-16T01:04:32;15.20;;;2.22;;
64282;SDS011;50497;50.720;-2.084;2022-10-16T01:14:53;12.93;;;1.80;;
64282;SDS011;50497;50.720;-2.084;2022-10-16T01:23:05;14.05;;;1.85;;
64282;SDS011;50497;50.720;-2.084;2022-10-16T01:28:21;13.73;;;2.50;;
64282;SDS011;50497;50.720;-2.084;2022-10-16T01:30:50;12.32;;;2.03;;
64282;SDS011;50497;50.720;-2.084;2022-10-16T01:33:24;14.88;;;2.10;;
64282;SDS011;50497;50.720;-2.084;2022-10-16T01:35:56;15.00;;;1.80;;
64282;SDS011;50497;50.720;-2.084;2022-10-16T01:41:04;16.10;;;2.53;;
64282;SDS011;50497;50.720;-2.084;2022-10-16T01:46:28;12.95;;;2.13;;
64282;SDS011;50497;50.720;-2.084;2022-10-16T01:48:56;11.88;;;1.77;;
64282;SDS011;50497;50.720;-2.084;2022-10-16T01:51:24;17.63;;;2.40;;
64282;SDS011;50497;50.720;-2.084;2022-10-16T01:53:52;11.98;;;2.00;;
64282;SDS011;50497;50.720;-2.084;2022-10-16T01:56:20;18.60;;;2.45;;
64282;SDS011;50497;50.720;-2.084;2022-10-16T01:58:55;13.98;;;2.25;;
64282;SDS011;50497;50.720;-2.084;2022-10-16T02:01:25;13.90;;;2.20;;
64282;SDS011;50497;50.720;-2.084;2022-10-16T02:03:54;15.40;;;1.98;;
64282;SDS011;50497;50.720;-2.084;2022-10-16T02:06:25;17.88;;;2.03;;
64282;SDS011;50497;50.720;-2.084;2022-10-16T02:08:51;12.02;;;2.05;;
64282;SDS011;50497;50.720;-2.084;2022-10-16T02:11:16;16.58;;;2.78;;
64282;SDS011;50497;50.720;-2.084;2022-10-16T02:13:46;14.85;;;2.10;;
64282;SDS011;50497;50.720;-2.084;2022-10-16T02:16:15;13.88;;;1.70;;
64282;SDS011;50497;50.720;-2.084;2022-10-16T02:18:42;12.25;;;2.10;;
64282;SDS011;50497;50.720;-2.084;2022-10-16T02:21:26;9.45;;;1.50;;
64282;SDS011;50497;50.720;-2.084;2022-10-16T02:24:09;14.73;;;1.80;;
64282;SDS011;50497;50.720;-2.084;2022-10-16T02:26:47;12.27;;;2.00;;
64282;SDS011;50497;50.720;-2.084;2022-10-16T02:29:14;11.88;;;1.77;;
64282;SDS011;50497;50.720;-2.084;2022-10-16T02:31:46;13.13;;;2.15;;
64282;SDS011;50497;50.720;-2.084;2022-10-16T02:34:14;11.70;;;1.90;;
64282;SDS011;50497;50.720;-2.084;2022-10-16T02:36:42;10.02;;;1.70;;
64282;SDS011;50497;50.720;-2.084;2022-10-16T02:39:09;12.38;;;2.17;;
64282;SDS011;50497;50.720;-2.084;2022-10-16T02:41:36;12.15;;;1.83;;
64282;SDS011;50497;50.720;-2.084;2022-10-16T02:44:01;12.32;;;2.00;;
64282;SDS011;50497;50.720;-2.084;2022-10-16T02:46:27;12.68;;;1.98;;
64282;SDS011;50497;50.720;-2.084;2022-10-16T02:48:52;11.70;;;1.83;;
64282;SDS011;50497;50.720;-2.084;2022-10-16T02:51:18;12.88;;;1.80;;
64282;SDS011;50497;50.720;-2.084;2022-10-16T02:53:43;13.45;;;2.08;;
64282;SDS011;50497;50.720;-2.084;2022-10-16T02:56:09;15.23;;;1.95;;
64282;SDS011;50497;50.720;-2.084;2022-10-16T02:58:34;16.17;;;2.50;;
64282;SDS011;50497;50.720;-2.084;2022-10-16T03:01:00;10.13;;;1.80;;
64282;SDS011;50497;50.720;-2.084;2022-10-16T03:03:25;13.98;;;2.30;;
64282;SDS011;50497;50.720;-2.084;2022-10-16T03:05:50;9.40;;;1.80;;
64282;SDS011;50497;50.720;-2.084;2022-10-16T03:08:16;9.13;;;1.80;;
64282;SDS011;50497;50.720;-2.084;2022-10-16T03:10:42;13.82;;;2.15;;
64282;SDS011;50497;50.720;-2.084;2022-10-16T03:13:07;14.85;;;2.05;;
64282;SDS011;50497;50.720;-2.084;2022-10-16T03:15:33;14.60;;;1.88;;
64282;SDS011;50497;50.720;-2.084;2022-10-16T03:17:58;14.48;;;1.98;;
64282;SDS011;50497;50.720;-2.084;2022-10-16T03:20:24;12.30;;;2.20;;
64282;SDS011;50497;50.720;-2.084;2022-10-16T03:22:50;15.65;;;2.08;;
64282;SDS011;50497;50.720;-2.084;2022-10-16T03:25:16;15.45;;;2.45;;
64282;SDS011;50497;50.720;-2.084;2022-10-16T03:27:41;16.58;;;2.13;;
64282;SDS011;50497;50.720;-2.084;2022-10-16T03:30:07;14.23;;;2.30;;
64282;SDS011;50497;50.720;-2.084;2022-10-16T03:32:33;12.48;;;1.80;;
64282;SDS011;50497;50.720;-2.084;2022-10-16T03:34:58;11.30;;;1.75;;
64282;SDS011;50497;50.720;-2.084;2022-10-16T03:37:24;12.63;;;1.98;;
64282;SDS011;50497;50.720;-2.084;2022-10-16T03:39:49;10.60;;;2.03;;
64282;SDS011;50497;50.720;-2.084;2022-10-16T03:42:15;13.13;;;2.10;;
64282;SDS011;50497;50.720;-2.084;2022-10-16T03:44:40;16.42;;;2.13;;
64282;SDS011;50497;50.720;-2.084;2022-10-16T03:47:06;13.50;;;2.08;;
64282;SDS011;50497;50.720;-2.084;2022-10-16T03:49:31;12.38;;;2.03;;
64282;SDS011;50497;50.720;-2.084;2022-10-16T03:51:56;11.77;;;1.95;;
64282;SDS011;50497;50.720;-2.084;2022-10-16T03:54:22;12.57;;;1.98;;
64282;SDS011;50497;50.720;-2.084;2022-10-16T03:56:47;18.73;;;2.25;;
64282;SDS011;50497;50.720;-2.084;2022-10-16T03:59:13;11.35;;;1.67;;
64282;SDS011;50497;50.720;-2.084;2022-10-16T04:01:39;10.65;;;1.95;;
64282;SDS011;50497;50.720;-2.084;2022-10-16T04:04:04;10.68;;;1.80;;
64282;SDS011;50497;50.720;-2.084;2022-10-16T04:06:29;10.85;;;1.73;;
64282;SDS011;50497;50.720;-2.084;2022-10-16T04:08:55;13.10;;;2.00;;
64282;SDS011;50497;50.720;-2.084;2022-10-16T04:11:21;13.48;;;2.00;;
64282;SDS011;50497;50.720;-2.084;2022-10-16T04:13:46;15.02;;;2.30;;
64282;SDS011;50497;50.720;-2.084;2022-10-16T04:16:12;11.77;;;2.10;;
64282;SDS011;50497;50.720;-2.084;2022-10-16T04:18:37;13.15;;;2.33;;
64282;SDS011;50497;50.720;-2.084;2022-10-16T04:21:06;14.55;;;2.35;;
64282;SDS011;50497;50.720;-2.084;2022-10-16T04:23:32;11.98;;;1.83;;
64282;SDS011;50497;50.720;-2.084;2022-10-16T04:25:59;11.48;;;1.98;;
64282;SDS011;50497;50.720;-2.084;2022-10-16T04:28:25;12.82;;;2.40;;
64282;SDS011;50497;50.720;-2.084;2022-10-16T04:30:50;11.35;;;1.77;;
64282;SDS011;50497;50.720;-2.084;2022-10-16T04:33:16;11.55;;;1.83;;
64282;SDS011;50497;50.720;-2.084;2022-10-16T04:35:41;13.73;;;2.10;;
64282;SDS011;50497;50.720;-2.084;2022-10-16T04:38:07;13.23;;;1.80;;
64282;SDS011;50497;50.720;-2.084;2022-10-16T04:40:32;15.65;;;2.35;;
64282;SDS011;50497;50.720;-2.084;2022-10-16T04:42:58;13.45;;;1.92;;
64282;SDS011;50497;50.720;-2.084;2022-10-16T04:45:24;13.18;;;1.92;;
64282;SDS011;50497;50.720;-2.084;2022-10-16T04:47:49;10.95;;;2.13;;
64282;SDS011;50497;50.720;-2.084;2022-10-16T04:50:15;9.95;;;1.77;;
64282;SDS011;50497;50.720;-2.084;2022-10-16T04:52:40;9.77;;;1.77;;
64282;SDS011;50497;50.720;-2.084;2022-10-16T04:55:06;14.40;;;2.00;;
64282;SDS011;50497;50.720;-2.084;2022-10-16T04:57:32;10.80;;;1.70;;
64282;SDS011;50497;50.720;-2.084;2022-10-16T04:59:58;10.10;;;2.30;;
64282;SDS011;50497;50.720;-2.084;2022-10-16T05:02:24;11.65;;;1.83;;
64282;SDS011;50497;50.720;-2.084;2022-10-16T05:04:50;13.15;;;2.03;;
64282;SDS011;50497;50.720;-2.084;2022-10-16T05:07:16;12.00;;;2.05;;
64282;SDS011;50497;50.720;-2.084;2022-10-16T05:09:41;19.38;;;2.15;;
64282;SDS011;50497;50.720;-2.084;2022-10-16T05:12:07;12.77;;;1.70;;
64282;SDS011;50497;50.720;-2.084;2022-10-16T05:14:32;13.55;;;1.90;;
64282;SDS011;50497;50.720;-2.084;2022-10-16T05:16:58;14.35;;;2.30;;
64282;SDS011;50497;50.720;-2.084;2022-10-16T05:19:25;13.57;;;2.13;;
64282;SDS011;50497;50.720;-2.084;2022-10-16T05:21:50;13.02;;;2.00;;
64282;SDS011;50497;50.720;-2.084;2022-10-16T05:24:15;15.80;;;2.30;;
64282;SDS011;50497;50.720;-2.084;2022-10-16T05:26:41;13.70;;;1.90;;
64282;SDS011;50497;50.720;-2.084;2022-10-16T05:29:06;13.82;;;2.03;;
64282;SDS011;50497;50.720;-2.084;2022-10-16T05:31:32;13.32;;;2.00;;
64282;SDS011;50497;50.720;-2.084;2022-10-16T05:33:58;17.92;;;2.22;;
64282;SDS011;50497;50.720;-2.084;2022-10-16T05:36:24;14.52;;;2.17;;
64282;SDS011;50497;50.720;-2.084;2022-10-16T05:38:51;12.38;;;2.40;;
64282;SDS011;50497;50.720;-2.084;2022-10-16T05:41:16;16.38;;;2.05;;
64282;SDS011;50497;50.720;-2.084;2022-10-16T05:43:46;13.48;;;1.95;;
64282;SDS011;50497;50.720;-2.084;2022-10-16T05:46:13;13.13;;;2.13;;
64282;SDS011;50497;50.720;-2.084;2022-10-16T05:48:39;17.75;;;2.42;;
64282;SDS011;50497;50.720;-2.084;2022-10-16T05:51:05;13.40;;;2.50;;
64282;SDS011;50497;50.720;-2.084;2022-10-16T05:53:33;13.38;;;2.28;;
64282;SDS011;50497;50.720;-2.084;2022-10-16T05:56:00;10.80;;;2.17;;
64282;SDS011;50497;50.720;-2.084;2022-10-16T05:58:33;14.70;;;2.55;;
64282;SDS011;50497;50.720;-2.084;2022-10-16T06:01:01;16.20;;;2.33;;
64282;SDS011;50497;50.720;-2.084;2022-10-16T06:03:29;15.23;;;2.50;;
64282;SDS011;50497;50.720;-2.084;2022-10-16T06:05:54;10.52;;;2.13;;
64282;SDS011;50497;50.720;-2.084;2022-10-16T06:08:20;14.70;;;2.20;;
64282;SDS011;50497;50.720;-2.084;2022-10-16T06:10:47;14.00;;;2.03;;
64282;SDS011;50497;50.720;-2.084;2022-10-16T06:13:13;16.27;;;2.20;;
64282;SDS011;50497;50.720;-2.084;2022-10-16T06:15:39;15.27;;;2.65;;
64282;SDS011;50497;50.720;-2.084;2022-10-16T06:18:07;12.10;;;2.38;;
64282;SDS011;50497;50.720;-2.084;2022-10-16T06:20:36;15.50;;;2.20;;
64282;SDS011;50497;50.720;-2.084;2022-10-16T06:25:29;12.82;;;1.92;;
64282;SDS011;50497;50.720;-2.084;2022-10-16T06:27:55;11.93;;;1.83;;
64282;SDS011;50497;50.720;-2.084;2022-10-16T06:30:20;15.35;;;2.10;;
64282;SDS011;50497;50.720;-2.084;2022-10-16T06:32:45;10.85;;;1.60;;
64282;SDS011;50497;50.720;-2.084;2022-10-16T06:35:11;14.52;;;2.08;;
64282;SDS011;50497;50.720;-2.084;2022-10-16T06:37:36;12.30;;;1.90;;
64282;SDS011;50497;50.720;-2.084;2022-10-16T06:40:02;8.07;;;1.52;;
64282;SDS011;50497;50.720;-2.084;2022-10-16T06:42:29;12.63;;;1.65;;
64282;SDS011;50497;50.720;-2.084;2022-10-16T06:44:55;10.43;;;1.90;;
64282;SDS011;50497;50.720;-2.084;2022-10-16T06:47:20;11.13;;;2.10;;
64282;SDS011;50497;50.720;-2.084;2022-10-16T06:49:46;15.60;;;1.92;;
64282;SDS011;50497;50.720;-2.084;2022-10-16T06:52:11;11.23;;;2.55;;
64282;SDS011;50497;50.720;-2.084;2022-10-16T06:54:36;12.05;;;2.17;;
64282;SDS011;50497;50.720;-2.084;2022-10-16T06:57:02;12.75;;;2.10;;
64282;SDS011;50497;50.720;-2.084;2022-10-16T06:59:27;16.80;;;3.17;;
64282;SDS011;50497;50.720;-2.084;2022-10-16T07:01:52;13.85;;;2.10;;
64282;SDS011;50497;50.720;-2.084;2022-10-16T07:04:18;13.48;;;2.30;;
64282;SDS011;50497;50.720;-2.084;2022-10-16T07:06:43;19.35;;;3.08;;
64282;SDS011;50497;50.720;-2.084;2022-10-16T07:09:09;14.88;;;2.22;;
64282;SDS011;50497;50.720;-2.084;2022-10-16T07:11:36;12.77;;;2.75;;
64282;SDS011;50497;50.720;-2.084;2022-10-16T07:14:03;11.73;;;2.30;;
64282;SDS011;50497;50.720;-2.084;2022-10-16T07:16:33;12.98;;;2.03;;
64282;SDS011;50497;50.720;-2.084;2022-10-16T07:19:01;9.15;;;2.03;;
64282;SDS011;50497;50.720;-2.084;2022-10-16T07:21:28;13.07;;;2.17;;
64282;SDS011;50497;50.720;-2.084;2022-10-16T07:23:58;14.18;;;2.13;;
64282;SDS011;50497;50.720;-2.084;2022-10-16T07:26:24;11.80;;;1.80;;
64282;SDS011;50497;50.720;-2.084;2022-10-16T07:28:51;13.60;;;1.95;;
64282;SDS011;50497;50.720;-2.084;2022-10-16T07:31:17;14.07;;;2.17;;
64282;SDS011;50497;50.720;-2.084;2022-10-16T07:33:44;9.18;;;2.20;;
64282;SDS011;50497;50.720;-2.084;2022-10-16T07:38:36;9.80;;;1.80;;
64282;SDS011;50497;50.720;-2.084;2022-10-16T07:41:03;11.32;;;2.13;;
64282;SDS011;50497;50.720;-2.084;2022-10-16T07:43:30;12.00;;;2.95;;
64282;SDS011;50497;50.720;-2.084;2022-10-16T07:45:56;10.18;;;2.22;;
64282;SDS011;50497;50.720;-2.084;2022-10-16T07:48:22;10.18;;;2.25;;
64282;SDS011;50497;50.720;-2.084;2022-10-16T07:50:48;9.23;;;1.60;;
64282;SDS011;50497;50.720;-2.084;2022-10-16T07:53:14;12.02;;;1.85;;
64282;SDS011;50497;50.720;-2.084;2022-10-16T07:55:40;10.85;;;1.77;;
64282;SDS011;50497;50.720;-2.084;2022-10-16T07:58:06;8.20;;;1.77;;
64282;SDS011;50497;50.720;-2.084;2022-10-16T08:00:32;7.60;;;1.65;;
64282;SDS011;50497;50.720;-2.084;2022-10-16T08:02:57;8.13;;;1.70;;
64282;SDS011;50497;50.720;-2.084;2022-10-16T08:05:30;10.32;;;1.90;;
64282;SDS011;50497;50.720;-2.084;2022-10-16T08:07:58;8.75;;;1.90;;
64282;SDS011;50497;50.720;-2.084;2022-10-16T08:10:24;14.27;;;2.67;;
64282;SDS011;50497;50.720;-2.084;2022-10-16T08:12:51;10.13;;;2.20;;
64282;SDS011;50497;50.720;-2.084;2022-10-16T08:15:17;18.33;;;2.50;;
64282;SDS011;50497;50.720;-2.084;2022-10-16T08:20:09;12.02;;;1.95;;
64282;SDS011;50497;50.720;-2.084;2022-10-16T08:22:35;13.75;;;1.90;;
64282;SDS011;50497;50.720;-2.084;2022-10-16T08:25:01;10.60;;;1.77;;
64282;SDS011;50497;50.720;-2.084;2022-10-16T08:27:35;13.90;;;2.15;;
64282;SDS011;50497;50.720;-2.084;2022-10-16T08:30:00;17.52;;;2.83;;
64282;SDS011;50497;50.720;-2.084;2022-10-16T08:32:25;14.80;;;2.75;;
64282;SDS011;50497;50.720;-2.084;2022-10-16T08:34:51;13.63;;;1.92;;
64282;SDS011;50497;50.720;-2.084;2022-10-16T08:37:17;12.13;;;2.20;;
64282;SDS011;50497;50.720;-2.084;2022-10-16T08:39:42;16.85;;;2.20;;
64282;SDS011;50497;50.720;-2.084;2022-10-16T08:42:11;13.45;;;2.10;;
64282;SDS011;50497;50.720;-2.084;2022-10-16T08:47:45;13.27;;;2.03;;
64282;SDS011;50497;50.720;-2.084;2022-10-16T08:50:23;11.48;;;2.30;;
64282;SDS011;50497;50.720;-2.084;2022-10-16T08:52:52;12.45;;;1.90;;
64282;SDS011;50497;50.720;-2.084;2022-10-16T08:55:28;12.35;;;2.00;;
64282;SDS011;50497;50.720;-2.084;2022-10-16T08:57:54;11.30;;;2.08;;
64282;SDS011;50497;50.720;-2.084;2022-10-16T09:00:19;11.00;;;1.90;;
64282;SDS011;50497;50.720;-2.084;2022-10-16T09:02:51;9.63;;;2.13;;
64282;SDS011;50497;50.720;-2.084;2022-10-16T09:05:32;13.73;;;2.30;;
64282;SDS011;50497;50.720;-2.084;2022-10-16T09:16:17;10.02;;;1.85;;
64282;SDS011;50497;50.720;-2.084;2022-10-16T09:21:42;9.77;;;1.80;;
64282;SDS011;50497;50.720;-2.084;2022-10-16T09:26:46;8.07;;;1.80;;
64282;SDS011;50497;50.720;-2.084;2022-10-16T09:29:12;9.13;;;1.60;;
64282;SDS011;50497;50.720;-2.084;2022-10-16T09:31:40;8.05;;;1.40;;
64282;SDS011;50497;50.720;-2.084;2022-10-16T09:34:08;6.78;;;1.38;;
64282;SDS011;50497;50.720;-2.084;2022-10-16T09:36:44;9.60;;;2.00;;
64282;SDS011;50497;50.720;-2.084;2022-10-16T09:39:11;12.82;;;1.80;;
64282;SDS011;50497;50.720;-2.084;2022-10-16T09:41:38;7.40;;;1.80;;
64282;SDS011;50497;50.720;-2.084;2022-10-16T09:47:03;6.25;;;1.55;;
64282;SDS011;50497;50.720;-2.084;2022-10-16T09:49:29;8.90;;;1.95;;
64282;SDS011;50497;50.720;-2.084;2022-10-16T09:52:05;7.70;;;1.60;;
64282;SDS011;50497;50.720;-2.084;2022-10-16T09:54:54;8.85;;;1.70;;
64282;SDS011;50497;50.720;-2.084;2022-10-16T09:57:21;9.10;;;2.00;;
64282;SDS011;50497;50.720;-2.084;2022-10-16T09:59:51;8.25;;;1.80;;
64282;SDS011;50497;50.720;-2.084;2022-10-16T10:02:25;8.85;;;2.00;;
64282;SDS011;50497;50.720;-2.084;2022-10-16T10:04:57;9.45;;;2.00;;
64282;SDS011;50497;50.720;-2.084;2022-10-16T10:07:32;8.98;;;1.80;;
64282;SDS011;50497;50.720;-2.084;2022-10-16T10:10:02;9.43;;;1.88;;
64282;SDS011;50497;50.720;-2.084;2022-10-16T10:12:30;7.13;;;1.67;;
64282;SDS011;50497;50.720;-2.084;2022-10-16T10:15:21;9.68;;;1.90;;
64282;SDS011;50497;50.720;-2.084;2022-10-16T10:17:49;10.45;;;1.95;;
64282;SDS011;50497;50.720;-2.084;2022-10-16T10:20:35;8.55;;;1.90;;
64282;SDS011;50497;50.720;-2.084;2022-10-16T10:23:20;13.20;;;2.38;;
64282;SDS011;50497;50.720;-2.084;2022-10-16T10:26:02;7.30;;;2.13;;
64282;SDS011;50497;50.720;-2.084;2022-10-16T10:34:37;9.07;;;1.63;;
64282;SDS011;50497;50.720;-2.084;2022-10-16T10:40:08;10.20;;;1.70;;
64282;SDS011;50497;50.720;-2.084;2022-10-16T10:51:13;11.30;;;2.10;;
64282;SDS011;50497;50.720;-2.084;2022-10-16T10:59:09;10.55;;;2.03;;
64282;SDS011;50497;50.720;-2.084;2022-10-16T11:02:25;12.07;;;2.13;;
64282;SDS011;50497;50.720;-2.084;2022-10-16T11:05:25;11.13;;;1.90;;
64282;SDS011;50497;50.720;-2.084;2022-10-16T11:10:24;10.88;;;1.83;;
64282;SDS011;50497;50.720;-2.084;2022-10-16T11:16:01;9.98;;;1.63;;
64282;SDS011;50497;50.720;-2.084;2022-10-16T11:19:22;9.85;;;1.60;;
64282;SDS011;50497;50.720;-2.084;2022-10-16T11:21:29;12.60;;;2.05;;
64282;SDS011;50497;50.720;-2.084;2022-10-16T11:24:00;10.40;;;1.60;;
64282;SDS011;50497;50.720;-2.084;2022-10-16T11:26:33;8.80;;;1.50;;
64282;SDS011;50497;50.720;-2.084;2022-10-16T11:29:03;11.07;;;1.98;;
64282;SDS011;50497;50.720;-2.084;2022-10-16T11:31:39;9.65;;;1.75;;
64282;SDS011;50497;50.720;-2.084;2022-10-16T11:34:12;8.18;;;1.55;;
64282;SDS011;50497;50.720;-2.084;2022-10-16T11:36:43;11.93;;;1.75;;
64282;SDS011;50497;50.720;-2.084;2022-10-16T11:39:23;8.38;;;1.67;;
64282;SDS011;50497;50.720;-2.084;2022-10-16T11:45:07;11.68;;;1.88;;
64282;SDS011;50497;50.720;-2.084;2022-10-16T11:47:34;7.45;;;1.52;;
64282;SDS011;50497;50.720;-2.084;2022-10-16T11:50:25;8.90;;;1.60;;
64282;SDS011;50497;50.720;-2.084;2022-10-16T11:55:56;8.55;;;1.42;;
64282;SDS011;50497;50.720;-2.084;2022-10-16T12:01:28;7.72;;;1.40;;
64282;SDS011;50497;50.720;-2.084;2022-10-16T12:04:20;9.82;;;1.50;;
64282;SDS011;50497;50.720;-2.084;2022-10-16T12:07:05;6.82;;;1.50;;
64282;SDS011;50497;50.720;-2.084;2022-10-16T12:09:34;7.57;;;1.40;;
64282;SDS011;50497;50.720;-2.084;2022-10-16T12:12:02;8.18;;;1.48;;
64282;SDS011;50497;50.720;-2.084;2022-10-16T12:14:35;9.85;;;1.50;;
64282;SDS011;50497;50.720;-2.084;2022-10-16T12:17:22;9.05;;;1.98;;
64282;SDS011;50497;50.720;-2.084;2022-10-16T12:20:01;10.55;;;1.67;;
64282;SDS011;50497;50.720;-2.084;2022-10-16T12:22:36;9.10;;;1.58;;
64282;SDS011;50497;50.720;-2.084;2022-10-16T12:25:02;9.05;;;1.55;;
64282;SDS011;50497;50.720;-2.084;2022-10-16T12:27:29;8.63;;;1.40;;
64282;SDS011;50497;50.720;-2.084;2022-10-16T12:30:01;8.48;;;1.50;;
64282;SDS011;50497;50.720;-2.084;2022-10-16T12:32:34;9.77;;;1.80;;
64282;SDS011;50497;50.720;-2.084;2022-10-16T12:35:05;7.32;;;1.77;;
64282;SDS011;50497;50.720;-2.084;2022-10-16T12:37:45;8.18;;;1.60;;
64282;SDS011;50497;50.720;-2.084;2022-10-16T12:40:36;11.85;;;1.90;;
64282;SDS011;50497;50.720;-2.084;2022-10-16T12:45:58;11.38;;;1.90;;
64282;SDS011;50497;50.720;-2.084;2022-10-16T12:48:32;11.25;;;2.00;;
64282;SDS011;50497;50.720;-2.084;2022-10-16T12:51:08;8.93;;;1.80;;
64282;SDS011;50497;50.720;-2.084;2022-10-16T12:53:35;13.13;;;1.77;;
64282;SDS011;50497;50.720;-2.084;2022-10-16T12:56:09;10.88;;;1.80;;
64282;SDS011;50497;50.720;-2.084;2022-10-16T13:01:13;9.48;;;1.52;;
64282;SDS011;50497;50.720;-2.084;2022-10-16T13:04:10;10.75;;;1.80;;
64282;SDS011;50497;50.720;-2.084;2022-10-16T13:06:53;9.80;;;1.60;;
64282;SDS011;50497;50.720;-2.084;2022-10-16T13:23:47;13.90;;;2.55;;
64282;SDS011;50497;50.720;-2.084;2022-10-16T13:26:31;11.75;;;1.80;;
64282;SDS011;50497;50.720;-2.084;2022-10-16T13:29:04;9.65;;;1.98;;
64282;SDS011;50497;50.720;-2.084;2022-10-16T13:31:30;11.27;;;2.10;;
64282;SDS011;50497;50.720;-2.084;2022-10-16T13:36:29;10.93;;;1.80;;
64282;SDS011;50497;50.720;-2.084;2022-10-16T13:44:40;8.93;;;1.75;;
64282;SDS011;50497;50.720;-2.084;2022-10-16T13:47:16;10.43;;;1.85;;
64282;SDS011;50497;50.720;-2.084;2022-10-16T13:50:05;12.23;;;2.53;;
64282;SDS011;50497;50.720;-2.084;2022-10-16T13:52:36;10.65;;;1.88;;
64282;SDS011;50497;50.720;-2.084;2022-10-16T13:55:03;12.52;;;1.98;;
64282;SDS011;50497;50.720;-2.084;2022-10-16T13:57:35;8.45;;;1.60;;
64282;SDS011;50497;50.720;-2.084;2022-10-16T14:00:00;8.10;;;1.42;;
64282;SDS011;50497;50.720;-2.084;2022-10-16T14:02:27;12.68;;;1.83;;
64282;SDS011;50497;50.720;-2.084;2022-10-16T14:04:57;9.93;;;1.77;;
64282;SDS011;50497;50.720;-2.084;2022-10-16T14:09:59;9.70;;;1.50;;
64282;SDS011;50497;50.720;-2.084;2022-10-16T14:12:34;13.57;;;2.08;;
64282;SDS011;50497;50.720;-2.084;2022-10-16T14:15:00;15.15;;;2.05;;
64282;SDS011;50497;50.720;-2.084;2022-10-16T14:17:31;8.13;;;1.48;;
64282;SDS011;50497;50.720;-2.084;2022-10-16T14:20:04;9.45;;;2.03;;
64282;SDS011;50497;50.720;-2.084;2022-10-16T14:22:32;11.52;;;1.88;;
64282;SDS011;50497;50.720;-2.084;2022-10-16T14:31:16;7.35;;;1.50;;
64282;SDS011;50497;50.720;-2.084;2022-10-16T14:33:45;9.13;;;1.70;;
64282;SDS011;50497;50.720;-2.084;2022-10-16T14:38:42;9.73;;;1.65;;
64282;SDS011;50497;50.720;-2.084;2022-10-16T14:41:20;9.57;;;1.75;;
64282;SDS011;50497;50.720;-2.084;2022-10-16T14:43:49;10.43;;;1.80;;
64282;SDS011;50497;50.720;-2.084;2022-10-16T14:46:20;10.70;;;1.90;;
64282;SDS011;50497;50.720;-2.084;2022-10-16T14:48:51;10.32;;;1.80;;
64282;SDS011;50497;50.720;-2.084;2022-10-16T14:51:22;10.68;;;1.98;;
64282;SDS011;50497;50.720;-2.084;2022-10-16T14:53:49;8.02;;;1.85;;
64282;SDS011;50497;50.720;-2.084;2022-10-16T14:58:43;6.88;;;1.70;;
64282;SDS011;50497;50.720;-2.084;2022-10-16T15:01:09;10.93;;;2.10;;
64282;SDS011;50497;50.720;-2.084;2022-10-16T15:03:36;7.35;;;1.80;;
64282;SDS011;50497;50.720;-2.084;2022-10-16T15:06:02;8.00;;;1.92;;
64282;SDS011;50497;50.720;-2.084;2022-10-16T15:08:27;10.15;;;2.30;;
64282;SDS011;50497;50.720;-2.084;2022-10-16T15:10:53;9.68;;;2.00;;
64282;SDS011;50497;50.720;-2.084;2022-10-16T15:13:18;10.43;;;2.10;;
64282;SDS011;50497;50.720;-2.084;2022-10-16T15:15:44;11.13;;;2.00;;
64282;SDS011;50497;50.720;-2.084;2022-10-16T15:18:12;9.57;;;1.80;;
64282;SDS011;50497;50.720;-2.084;2022-10-16T15:20:40;8.23;;;1.85;;
64282;SDS011;50497;50.720;-2.084;2022-10-16T15:23:09;10.52;;;2.20;;
64282;SDS011;50497;50.720;-2.084;2022-10-16T15:28:08;10.27;;;2.38;;
64282;SDS011;50497;50.720;-2.084;2022-10-16T15:30:35;10.77;;;2.30;;
64282;SDS011;50497;50.720;-2.084;2022-10-16T15:33:02;10.88;;;2.38;;
64282;SDS011;50497;50.720;-2.084;2022-10-16T15:35:28;9.43;;;2.40;;
64282;SDS011;50497;50.720;-2.084;2022-10-16T15:37:54;8.77;;;2.58;;
64282;SDS011;50497;50.720;-2.084;2022-10-16T15:40:20;12.43;;;2.83;;
64282;SDS011;50497;50.720;-2.084;2022-10-16T15:42:49;8.50;;;2.25;;
64282;SDS011;50497;50.720;-2.084;2022-10-16T15:45:15;10.13;;;2.72;;
64282;SDS011;50497;50.720;-2.084;2022-10-16T15:47:41;11.95;;;2.60;;
64282;SDS011;50497;50.720;-2.084;2022-10-16T15:50:09;8.40;;;2.50;;
64282;SDS011;50497;50.720;-2.084;2022-10-16T15:52:36;11.05;;;2.35;;
64282;SDS011;50497;50.720;-2.084;2022-10-16T15:55:04;9.77;;;2.97;;
64282;SDS011;50497;50.720;-2.084;2022-10-16T15:57:35;8.70;;;2.75;;
64282;SDS011;50497;50.720;-2.084;2022-10-16T16:00:04;10.27;;;2.70;;
64282;SDS011;50497;50.720;-2.084;2022-10-16T16:02:33;10.50;;;2.83;;
64282;SDS011;50497;50.720;-2.084;2022-10-16T16:04:58;10.98;;;2.70;;
64282;SDS011;50497;50.720;-2.084;2022-10-16T16:07:25;12.15;;;2.85;;
64282;SDS011;50497;50.720;-2.084;2022-10-16T16:09:52;11.00;;;2.47;;
64282;SDS011;50497;50.720;-2.084;2022-10-16T16:12:18;9.00;;;2.28;;
64282;SDS011;50497;50.720;-2.084;2022-10-16T16:14:43;9.52;;;2.65;;
64282;SDS011;50497;50.720;-2.084;2022-10-16T16:17:11;15.15;;;3.90;;
64282;SDS011;50497;50.720;-2.084;2022-10-16T16:19:36;12.07;;;3.05;;
64282;SDS011;50497;50.720;-2.084;2022-10-16T16:22:02;10.68;;;2.97;;
64282;SDS011;50497;50.720;-2.084;2022-10-16T16:24:27;11.10;;;2.83;;
64282;SDS011;50497;50.720;-2.084;2022-10-16T16:26:53;16.63;;;2.92;;
64282;SDS011;50497;50.720;-2.084;2022-10-16T16:29:19;14.32;;;3.67;;
64282;SDS011;50497;50.720;-2.084;2022-10-16T16:31:44;12.45;;;2.28;;
64282;SDS011;50497;50.720;-2.084;2022-10-16T16:34:12;13.15;;;3.38;;
64282;SDS011;50497;50.720;-2.084;2022-10-16T16:36:37;14.90;;;3.80;;
64282;SDS011;50497;50.720;-2.084;2022-10-16T16:39:05;17.63;;;4.78;;
64282;SDS011;50497;50.720;-2.084;2022-10-16T16:41:31;15.40;;;3.45;;
64282;SDS011;50497;50.720;-2.084;2022-10-16T16:44:01;13.50;;;3.65;;
64282;SDS011;50497;50.720;-2.084;2022-10-16T16:46:28;16.92;;;4.00;;
64282;SDS011;50497;50.720;-2.084;2022-10-16T16:48:54;15.40;;;4.22;;
64282;SDS011;50497;50.720;-2.084;2022-10-16T16:51:20;19.58;;;4.90;;